createdAt,value
2018-05-10T00:00:17.550Z,10.88
2018-05-10T00:02:45.145Z,10.69
2018-05-10T00:05:12.802Z,10.68
2018-05-10T00:07:40.405Z,10.59
2018-05-10T00:10:08.056Z,10.71
2018-05-10T00:12:35.704Z,10.73
2018-05-10T00:15:03.303Z,10.85
2018-05-10T00:17:30.954Z,10.69
2018-05-10T00:19:58.638Z,10.57
2018-05-10T00:22:26.277Z,10.32
2018-05-10T00:24:53.863Z,10.35
2018-05-10T00:27:21.500Z,10.35
2018-05-10T00:29:49.188Z,10.36
2018-05-10T00:32:16.804Z,10.33
2018-05-10T00:34:44.417Z,10.30
2018-05-10T00:37:12.049Z,10.28
2018-05-10T00:39:39.766Z,10.23
2018-05-10T00:42:07.481Z,10.26
2018-05-10T00:44:35.105Z,10.33
2018-05-10T00:47:02.782Z,10.30
2018-05-10T00:49:30.429Z,10.20
2018-05-10T00:51:58.088Z,10.21
2018-05-10T00:54:37.488Z,10.27
2018-05-10T00:57:05.072Z,9.96
2018-05-10T00:59:32.712Z,10.03
2018-05-10T01:02:00.397Z,10.17
2018-05-10T01:04:28.951Z,9.91
2018-05-10T01:06:56.589Z,10.08
2018-05-10T01:09:24.248Z,10.20
2018-05-10T01:11:51.920Z,10.11
2018-05-10T01:14:19.562Z,9.89
2018-05-10T01:16:47.231Z,10.00
2018-05-10T01:19:14.905Z,10.07
2018-05-10T01:21:42.566Z,10.08
2018-05-10T01:24:10.199Z,10.06
2018-05-10T01:26:37.839Z,9.99
2018-05-10T01:29:05.518Z,10.02
2018-05-10T01:31:33.208Z,10.07
2018-05-10T01:34:00.840Z,10.09
2018-05-10T01:36:28.496Z,10.13
2018-05-10T01:38:56.164Z,10.02
2018-05-10T01:41:23.912Z,10.22
2018-05-10T01:43:51.574Z,10.14
2018-05-10T01:46:19.249Z,10.06
2018-05-10T01:48:46.830Z,9.99
2018-05-10T01:51:14.540Z,10.04
2018-05-10T01:53:42.139Z,9.98
2018-05-10T01:56:09.807Z,9.88
2018-05-10T01:58:37.431Z,9.79
2018-05-10T02:01:05.013Z,9.74
2018-05-10T02:03:32.669Z,9.60
2018-05-10T02:06:00.538Z,9.52
2018-05-10T02:08:28.191Z,9.52
2018-05-10T02:10:55.933Z,9.60
2018-05-10T02:13:23.543Z,9.60
2018-05-10T02:15:51.236Z,9.63
2018-05-10T02:18:19.131Z,9.61
2018-05-10T02:20:46.764Z,9.59
2018-05-10T02:23:14.380Z,9.68
2018-05-10T02:25:42.028Z,9.67
2018-05-10T02:28:09.640Z,9.73
2018-05-10T02:30:37.273Z,9.70
2018-05-10T02:33:04.859Z,9.69
2018-05-10T02:35:32.571Z,9.68
2018-05-10T02:38:00.654Z,9.68
2018-05-10T02:40:28.396Z,9.64
2018-05-10T02:42:56.019Z,9.49
2018-05-10T02:45:23.613Z,9.62
2018-05-10T02:47:51.249Z,9.60
2018-05-10T02:50:18.867Z,9.45
2018-05-10T02:52:46.532Z,9.45
2018-05-10T02:55:14.133Z,9.53
2018-05-10T02:57:41.847Z,9.48
2018-05-10T03:00:09.451Z,9.30
2018-05-10T03:02:37.053Z,9.25
2018-05-10T03:05:04.804Z,9.42
2018-05-10T03:07:32.501Z,9.51
2018-05-10T03:10:01.410Z,9.43
2018-05-10T03:12:29.053Z,9.36
2018-05-10T03:14:56.738Z,9.24
2018-05-10T03:17:24.335Z,9.29
2018-05-10T03:19:52.010Z,9.35
2018-05-10T03:22:19.654Z,9.31
2018-05-10T03:24:47.260Z,9.37
2018-05-10T03:27:15.129Z,9.31
2018-05-10T03:29:42.704Z,9.34
2018-05-10T03:32:10.300Z,9.38
2018-05-10T03:34:38.019Z,9.29
2018-05-10T03:37:05.643Z,9.23
2018-05-10T03:39:33.281Z,9.21
2018-05-10T03:42:00.863Z,9.25
2018-05-10T03:44:28.547Z,9.22
2018-05-10T03:46:56.291Z,9.20
2018-05-10T03:49:24.034Z,9.32
2018-05-10T03:51:51.625Z,9.41
2018-05-10T03:54:19.287Z,9.34
2018-05-10T03:56:46.912Z,9.40
2018-05-10T03:59:14.568Z,9.46
2018-05-10T04:01:42.223Z,9.54
2018-05-10T04:04:34.363Z,9.56
2018-05-10T04:07:13.721Z,9.47
2018-05-10T04:09:53.131Z,9.55
2018-05-10T04:12:20.782Z,9.53
2018-05-10T04:14:48.405Z,9.61
2018-05-10T04:17:16.083Z,9.49
2018-05-10T04:19:43.745Z,9.73
2018-05-10T04:22:11.438Z,9.91
2018-05-10T04:24:39.040Z,9.86
2018-05-10T04:27:06.665Z,9.92
2018-05-10T04:29:34.299Z,9.95
2018-05-10T04:32:02.498Z,10.12
2018-05-10T04:34:30.136Z,10.24
2018-05-10T04:36:57.788Z,10.27
2018-05-10T04:39:25.530Z,10.33
2018-05-10T04:41:53.123Z,10.39
2018-05-10T04:44:20.814Z,10.44
2018-05-10T04:46:48.496Z,10.54
2018-05-10T04:49:16.292Z,10.65
2018-05-10T04:51:44.001Z,10.96
2018-05-10T04:54:11.608Z,11.10
2018-05-10T04:56:39.307Z,11.30
2018-05-10T04:59:06.913Z,11.47
2018-05-10T05:01:34.527Z,11.63
2018-05-10T05:04:02.204Z,11.94
2018-05-10T05:06:29.813Z,11.55
2018-05-10T05:08:57.545Z,11.63
2018-05-10T05:11:25.243Z,11.95
2018-05-10T05:13:52.877Z,12.05
2018-05-10T05:16:20.532Z,12.06
2018-05-10T05:18:48.157Z,12.08
2018-05-10T05:21:15.804Z,12.15
2018-05-10T05:23:43.781Z,12.45
2018-05-10T05:26:11.439Z,12.82
2018-05-10T05:28:39.121Z,12.83
2018-05-10T05:31:06.795Z,13.01
2018-05-10T05:33:34.678Z,12.81
2018-05-10T05:36:02.283Z,12.48
2018-05-10T05:38:30.231Z,12.26
2018-05-10T05:40:57.898Z,12.43
2018-05-10T05:43:25.581Z,12.45
2018-05-10T05:45:53.227Z,12.80
2018-05-10T05:48:20.966Z,13.10
2018-05-10T05:50:48.648Z,13.58
2018-05-10T05:53:16.294Z,13.61
2018-05-10T05:55:44.034Z,13.54
2018-05-10T05:58:12.227Z,12.90
2018-05-10T06:00:39.894Z,12.80
2018-05-10T06:03:08.235Z,12.72
2018-05-10T06:05:35.905Z,12.77
2018-05-10T06:08:03.775Z,12.85
2018-05-10T06:10:32.442Z,12.89
2018-05-10T06:13:01.033Z,12.96
2018-05-10T06:15:29.569Z,12.89
2018-05-10T06:17:57.299Z,13.04
2018-05-10T06:20:25.072Z,13.12
2018-05-10T06:22:52.833Z,13.07
2018-05-10T06:25:20.813Z,13.35
2018-05-10T06:27:48.586Z,13.19
2018-05-10T06:30:16.521Z,13.27
2018-05-10T06:32:44.131Z,13.30
2018-05-10T06:35:11.792Z,13.53
2018-05-10T06:37:39.455Z,13.66
2018-05-10T06:40:07.123Z,14.03
2018-05-10T06:42:34.987Z,14.31
2018-05-10T06:45:02.889Z,14.72
2018-05-10T06:47:31.497Z,14.85
2018-05-10T06:49:59.126Z,15.27
2018-05-10T06:52:27.022Z,15.82
2018-05-10T06:54:55.095Z,16.33
2018-05-10T06:57:23.304Z,16.51
2018-05-10T06:59:51.664Z,16.91
2018-05-10T07:02:19.416Z,17.75
2018-05-10T07:04:47.021Z,17.46
2018-05-10T07:07:14.972Z,16.55
2018-05-10T07:09:42.782Z,16.50
2018-05-10T07:12:11.044Z,16.46
2018-05-10T07:14:39.368Z,17.86
2018-05-10T07:17:07.013Z,17.89
2018-05-10T07:19:34.653Z,17.53
2018-05-10T07:22:02.465Z,18.51
2018-05-10T07:24:30.136Z,18.04
2018-05-10T07:26:58.238Z,17.73
2018-05-10T07:29:25.956Z,17.28
2018-05-10T07:31:54.280Z,17.51
2018-05-10T07:34:21.978Z,17.86
2018-05-10T07:36:50.349Z,18.18
2018-05-10T07:39:17.964Z,18.45
2018-05-10T07:41:45.660Z,18.37
2018-05-10T07:44:13.308Z,18.59
2018-05-10T07:46:41.028Z,18.70
2018-05-10T07:49:08.685Z,19.10
2018-05-10T07:51:36.285Z,19.18
2018-05-10T07:54:03.969Z,19.23
2018-05-10T07:56:31.694Z,19.54
2018-05-10T07:58:59.371Z,20.06
2018-05-10T08:01:27.076Z,20.40
2018-05-10T08:03:54.731Z,20.36
2018-05-10T08:06:22.437Z,19.60
2018-05-10T08:08:50.112Z,20.08
2018-05-10T08:11:17.766Z,20.54
2018-05-10T08:13:45.437Z,20.19
2018-05-10T08:16:13.090Z,20.05
2018-05-10T08:18:40.749Z,19.84
2018-05-10T08:21:08.405Z,19.90
2018-05-10T08:23:48.641Z,20.03
2018-05-10T08:26:16.829Z,19.85
2018-05-10T08:28:45.196Z,19.58
2018-05-10T08:31:13.594Z,20.16
2018-05-10T08:33:41.869Z,20.30
2018-05-10T08:36:10.943Z,21.15
2018-05-10T08:38:39.868Z,20.67
2018-05-10T08:41:07.592Z,20.34
2018-05-10T08:43:35.243Z,20.91
2018-05-10T08:46:02.910Z,21.20
2018-05-10T08:48:30.518Z,21.30
2018-05-10T08:50:58.169Z,21.49
2018-05-10T08:53:25.830Z,21.18
2018-05-10T08:55:53.504Z,21.19
2018-05-10T08:58:21.170Z,20.86
2018-05-10T09:00:48.896Z,21.03
2018-05-10T09:03:17.516Z,20.74
2018-05-10T09:05:46.052Z,20.54
2018-05-10T09:08:13.705Z,20.64
2018-05-10T09:10:42.544Z,20.59
2018-05-10T09:13:10.159Z,20.60
2018-05-10T09:15:37.870Z,21.07
2018-05-10T09:18:05.523Z,21.25
2018-05-10T09:20:33.190Z,21.56
2018-05-10T09:23:00.915Z,21.24
2018-05-10T09:25:28.700Z,20.97
2018-05-10T09:27:56.383Z,20.83
2018-05-10T09:30:23.998Z,20.75
2018-05-10T09:32:51.686Z,20.82
2018-05-10T09:35:19.446Z,20.88
2018-05-10T09:37:47.146Z,20.88
2018-05-10T09:40:14.929Z,20.78
2018-05-10T09:42:43.322Z,20.52
2018-05-10T09:45:11.244Z,20.74
2018-05-10T09:47:38.955Z,20.78
2018-05-10T09:50:06.645Z,20.96
2018-05-10T09:52:34.492Z,21.08
2018-05-10T09:55:02.926Z,21.03
2018-05-10T09:57:30.579Z,20.63
2018-05-10T09:59:58.207Z,20.64
2018-05-10T10:02:27.452Z,20.63
2018-05-10T10:04:55.528Z,20.50
2018-05-10T10:07:23.613Z,20.55
2018-05-10T10:09:51.594Z,20.58
2018-05-10T10:12:19.407Z,20.66
2018-05-10T10:14:47.322Z,20.69
2018-05-10T10:17:15.319Z,20.74
2018-05-10T10:19:43.801Z,20.71
2018-05-10T10:22:11.457Z,20.63
2018-05-10T10:24:39.269Z,20.72
2018-05-10T10:27:07.141Z,20.80
2018-05-10T10:29:34.830Z,20.88
2018-05-10T10:32:02.548Z,20.91
2018-05-10T10:34:31.191Z,20.76
2018-05-10T10:36:58.987Z,20.95
2018-05-10T10:39:26.877Z,21.23
2018-05-10T10:41:54.750Z,21.07
2018-05-10T10:44:22.738Z,20.62
2018-05-10T10:46:50.424Z,20.76
2018-05-10T10:49:18.039Z,21.00
2018-05-10T10:51:45.701Z,20.91
2018-05-10T10:54:13.382Z,20.87
2018-05-10T10:56:41.081Z,21.11
2018-05-10T10:59:08.916Z,21.14
2018-05-10T11:01:36.779Z,21.04
2018-05-10T11:04:04.554Z,20.89
2018-05-10T11:06:32.262Z,20.97
2018-05-10T11:09:00.040Z,21.05
2018-05-10T11:11:29.576Z,20.98
2018-05-10T11:13:57.770Z,21.06
2018-05-10T11:16:25.513Z,21.20
2018-05-10T11:18:54.191Z,21.09
2018-05-10T11:21:21.924Z,20.93
2018-05-10T11:23:49.566Z,20.75
2018-05-10T11:26:17.270Z,20.64
2018-05-10T11:28:44.903Z,20.45
2018-05-10T11:31:12.562Z,20.24
2018-05-10T11:33:40.680Z,20.15
2018-05-10T11:36:08.657Z,19.98
2018-05-10T11:38:36.518Z,19.92
2018-05-10T11:41:04.385Z,19.89
2018-05-10T11:43:32.249Z,19.62
2018-05-10T11:46:00.127Z,19.21
2018-05-10T11:48:27.794Z,18.66
2018-05-10T11:50:55.480Z,18.35
2018-05-10T11:53:23.311Z,18.01
2018-05-10T11:55:50.942Z,17.95
2018-05-10T11:58:18.816Z,17.26
2018-05-10T12:00:46.642Z,17.40
2018-05-10T12:03:15.545Z,17.26
2018-05-10T12:05:43.284Z,17.01
2018-05-10T12:08:10.943Z,16.79
2018-05-10T12:10:38.777Z,16.65
2018-05-10T12:13:06.497Z,16.36
2018-05-10T12:15:34.288Z,16.31
2018-05-10T12:18:01.988Z,16.08
2018-05-10T12:20:29.661Z,15.99
2018-05-10T12:22:57.404Z,15.80
2018-05-10T12:25:25.073Z,15.79
2018-05-10T12:27:52.765Z,15.90
2018-05-10T12:30:20.735Z,15.82
2018-05-10T12:32:48.385Z,15.78
2018-05-10T12:35:16.119Z,15.66
2018-05-10T12:37:43.884Z,15.83
2018-05-10T12:40:11.513Z,15.56
2018-05-10T12:42:39.215Z,15.68
2018-05-10T12:45:06.852Z,15.90
2018-05-10T12:47:34.526Z,15.71
2018-05-10T12:50:02.184Z,15.87
2018-05-10T12:52:29.929Z,15.81
2018-05-10T12:54:57.821Z,16.11
2018-05-10T12:57:25.506Z,16.25
2018-05-10T12:59:53.188Z,16.41
2018-05-10T13:02:20.844Z,16.46
2018-05-10T13:04:48.463Z,16.40
2018-05-10T13:07:16.142Z,16.34
2018-05-10T13:09:43.798Z,16.58
2018-05-10T13:12:11.465Z,16.70
2018-05-10T13:14:39.262Z,16.63
2018-05-10T13:17:08.017Z,16.52
2018-05-10T13:19:35.727Z,16.18
2018-05-10T13:22:03.378Z,16.18
2018-05-10T13:24:31.034Z,16.20
2018-05-10T13:26:58.714Z,16.24
2018-05-10T13:29:26.423Z,16.32
2018-05-10T13:31:54.146Z,16.26
2018-05-10T13:34:21.829Z,16.20
2018-05-10T13:36:49.449Z,16.28
2018-05-10T13:39:17.060Z,16.21
2018-05-10T13:41:44.738Z,16.57
2018-05-10T13:44:12.446Z,16.72
2018-05-10T13:46:40.119Z,16.77
2018-05-10T13:49:07.806Z,16.79
2018-05-10T13:51:35.416Z,16.94
2018-05-10T13:54:03.230Z,16.97
2018-05-10T13:56:30.920Z,16.95
2018-05-10T13:58:58.646Z,16.82
2018-05-10T14:01:26.359Z,16.91
2018-05-10T14:03:54.018Z,16.89
2018-05-10T14:06:21.762Z,16.86
2018-05-10T14:08:49.437Z,16.81
2018-05-10T14:11:17.060Z,16.89
2018-05-10T14:13:44.746Z,16.69
2018-05-10T14:16:12.450Z,16.61
2018-05-10T14:18:40.205Z,16.47
2018-05-10T14:21:09.115Z,16.65
2018-05-10T14:23:36.849Z,16.68
2018-05-10T14:26:04.513Z,16.82
2018-05-10T14:28:32.215Z,16.89
2018-05-10T14:30:59.988Z,16.98
2018-05-10T14:33:27.611Z,17.02
2018-05-10T14:35:55.254Z,17.40
2018-05-10T14:38:22.977Z,17.80
2018-05-10T14:40:50.646Z,17.80
2018-05-10T14:43:18.235Z,18.12
2018-05-10T14:45:45.925Z,18.47
2018-05-10T14:48:13.629Z,18.13
2018-05-10T14:50:41.955Z,18.17
2018-05-10T14:53:09.588Z,17.75
2018-05-10T14:55:37.289Z,18.24
2018-05-10T14:58:04.951Z,18.46
2018-05-10T15:00:32.670Z,18.49
2018-05-10T15:03:00.350Z,18.18
2018-05-10T15:05:28.095Z,18.21
2018-05-10T15:07:55.685Z,18.41
2018-05-10T15:10:23.296Z,18.37
2018-05-10T15:12:50.957Z,18.31
2018-05-10T15:15:18.647Z,18.44
2018-05-10T15:17:46.378Z,18.32
2018-05-10T15:20:14.071Z,18.44
2018-05-10T15:22:41.883Z,18.41
2018-05-10T15:25:09.570Z,18.34
2018-05-10T15:27:37.444Z,18.34
2018-05-10T15:30:05.134Z,18.33
2018-05-10T15:32:32.867Z,18.24
2018-05-10T15:35:00.593Z,18.26
2018-05-10T15:37:28.291Z,18.16
2018-05-10T15:39:56.028Z,18.17
2018-05-10T15:42:23.828Z,18.08
2018-05-10T15:44:51.531Z,18.03
2018-05-10T15:47:21.015Z,18.06
2018-05-10T15:49:48.867Z,17.60
2018-05-10T15:52:16.672Z,17.25
2018-05-10T15:54:44.304Z,16.89
2018-05-10T15:57:12.083Z,16.99
2018-05-10T15:59:39.740Z,16.92
2018-05-10T16:02:07.451Z,16.83
2018-05-10T16:04:35.142Z,16.83
2018-05-10T16:07:02.846Z,16.79
2018-05-10T16:09:30.548Z,16.79
2018-05-10T16:11:58.257Z,16.83
2018-05-10T16:14:25.974Z,16.72
2018-05-10T16:16:53.612Z,16.76
2018-05-10T16:19:22.525Z,16.73
2018-05-10T16:21:50.175Z,16.80
2018-05-10T16:24:17.891Z,16.65
2018-05-10T16:26:45.694Z,16.54
2018-05-10T16:29:13.353Z,16.62
2018-05-10T16:31:41.063Z,16.59
2018-05-10T16:34:08.665Z,16.49
2018-05-10T16:36:36.383Z,16.54
2018-05-10T16:39:04.117Z,16.58
2018-05-10T16:41:32.097Z,16.56
2018-05-10T16:43:59.985Z,16.56
2018-05-10T16:46:28.030Z,16.59
2018-05-10T16:48:56.315Z,16.54
2018-05-10T16:51:24.187Z,16.54
2018-05-10T16:53:53.352Z,16.59
2018-05-10T16:56:21.193Z,16.55
2018-05-10T16:58:49.244Z,16.47
2018-05-10T17:01:16.938Z,16.37
2018-05-10T17:03:44.798Z,16.40
2018-05-10T17:06:12.490Z,16.44
2018-05-10T17:08:41.966Z,16.57
2018-05-10T17:11:09.705Z,16.41
2018-05-10T17:13:37.332Z,16.42
2018-05-10T17:16:05.028Z,16.34
2018-05-10T17:18:33.623Z,16.23
2018-05-10T17:21:01.285Z,16.19
2018-05-10T17:23:29.696Z,16.08
2018-05-10T17:25:57.389Z,16.01
2018-05-10T17:28:25.100Z,15.97
2018-05-10T17:30:53.933Z,15.90
2018-05-10T17:33:21.695Z,15.83
2018-05-10T17:35:49.418Z,15.79
2018-05-10T17:38:17.100Z,15.86
2018-05-10T17:40:44.807Z,15.75
2018-05-10T17:43:12.531Z,15.57
2018-05-10T17:45:40.217Z,15.54
2018-05-10T17:48:08.263Z,15.51
2018-05-10T17:50:35.931Z,15.50
2018-05-10T17:53:03.581Z,15.52
2018-05-10T17:55:31.317Z,15.59
2018-05-10T17:57:58.953Z,15.58
2018-05-10T18:00:26.777Z,15.52
2018-05-10T18:02:54.428Z,15.53
2018-05-10T18:05:22.450Z,15.50
2018-05-10T18:07:50.168Z,15.45
2018-05-10T18:10:18.809Z,15.44
2018-05-10T18:12:46.562Z,15.38
2018-05-10T18:15:14.276Z,15.18
2018-05-10T18:17:41.970Z,15.08
2018-05-10T18:20:09.718Z,15.12
2018-05-10T18:22:37.434Z,15.03
2018-05-10T18:25:05.609Z,14.98
2018-05-10T18:27:33.276Z,14.96
2018-05-10T18:30:02.140Z,14.93
2018-05-10T18:32:29.942Z,14.98
2018-05-10T18:34:57.700Z,15.03
2018-05-10T18:37:25.391Z,15.14
2018-05-10T18:39:53.072Z,15.08
2018-05-10T18:42:20.838Z,15.03
2018-05-10T18:44:48.633Z,15.13
2018-05-10T18:47:17.519Z,15.03
2018-05-10T18:49:45.252Z,14.97
2018-05-10T18:52:12.912Z,14.90
2018-05-10T18:54:40.639Z,14.93
2018-05-10T18:57:08.237Z,14.88
2018-05-10T18:59:36.304Z,14.93
2018-05-10T19:02:04.079Z,14.85
2018-05-10T19:04:32.481Z,14.84
2018-05-10T19:07:00.231Z,14.83
2018-05-10T19:09:28.931Z,14.93
2018-05-10T19:11:56.655Z,14.93
2018-05-10T19:14:24.297Z,14.86
2018-05-10T19:16:52.053Z,14.89
2018-05-10T19:19:19.926Z,14.87
2018-05-10T19:21:47.705Z,14.82
2018-05-10T19:24:15.970Z,14.74
2018-05-10T19:26:44.422Z,14.73
2018-05-10T19:29:12.170Z,14.50
2018-05-10T19:31:39.913Z,14.38
2018-05-10T19:34:07.613Z,14.40
2018-05-10T19:36:35.435Z,14.40
2018-05-10T19:39:04.213Z,14.47
2018-05-10T19:41:32.213Z,14.44
2018-05-10T19:43:59.854Z,14.52
2018-05-10T19:46:27.538Z,14.57
2018-05-10T19:48:55.399Z,14.58
2018-05-10T19:51:23.217Z,14.62
2018-05-10T19:53:51.116Z,14.58
2018-05-10T19:56:18.794Z,14.64
2018-05-10T19:58:46.481Z,14.52
2018-05-10T20:01:14.131Z,14.51
2018-05-10T20:03:41.836Z,14.52
2018-05-10T20:06:09.456Z,14.55
2018-05-10T20:08:37.225Z,14.49
2018-05-10T20:11:04.916Z,14.54
2018-05-10T20:13:32.624Z,14.45
2018-05-10T20:16:00.271Z,14.55
2018-05-10T20:18:27.943Z,14.61
2018-05-10T20:20:55.712Z,14.54
2018-05-10T20:23:24.355Z,14.60
2018-05-10T20:25:52.238Z,14.53
2018-05-10T20:28:20.072Z,14.57
2018-05-10T20:30:47.921Z,14.54
2018-05-10T20:33:15.770Z,14.52
2018-05-10T20:35:43.679Z,14.45
2018-05-10T20:38:11.299Z,14.47
2018-05-10T20:40:39.057Z,14.48
2018-05-10T20:43:06.868Z,14.43
2018-05-10T20:45:34.637Z,14.46
2018-05-10T20:48:02.286Z,14.49
2018-05-10T20:50:31.168Z,14.45
2018-05-10T20:52:58.804Z,14.46
2018-05-10T20:55:26.614Z,14.46
2018-05-10T20:57:54.211Z,14.42
2018-05-10T21:00:21.907Z,14.42
2018-05-10T21:02:49.795Z,14.35
2018-05-10T21:05:17.489Z,14.31
2018-05-10T21:07:46.276Z,14.34
2018-05-10T21:10:14.228Z,14.29
2018-05-10T21:12:42.845Z,14.33
2018-05-10T21:15:10.568Z,14.35
2018-05-10T21:17:38.415Z,14.44
2018-05-10T21:20:06.050Z,14.43
2018-05-10T21:22:33.790Z,14.38
2018-05-10T21:25:01.458Z,14.31
2018-05-10T21:27:29.150Z,14.23
2018-05-10T21:29:56.800Z,14.19
2018-05-10T21:32:24.503Z,14.17
2018-05-10T21:34:52.235Z,14.25
2018-05-10T21:37:19.850Z,14.28
2018-05-10T21:39:47.514Z,14.25
2018-05-10T21:42:15.096Z,14.22
2018-05-10T21:44:42.856Z,14.29
2018-05-10T21:47:10.467Z,14.24
2018-05-10T21:49:49.811Z,14.22
2018-05-10T21:52:17.414Z,14.25
2018-05-10T21:54:45.045Z,14.30
2018-05-10T21:57:12.663Z,14.22
2018-05-10T21:59:40.335Z,14.23
2018-05-10T22:02:07.981Z,14.27
2018-05-10T22:04:36.338Z,14.21
2018-05-10T22:07:04.011Z,14.20
2018-05-10T22:09:31.656Z,14.06
2018-05-10T22:11:59.311Z,14.07
2018-05-10T22:14:26.933Z,14.00
2018-05-10T22:16:54.581Z,14.09
2018-05-10T22:19:22.226Z,14.16
2018-05-10T22:21:49.820Z,14.07
2018-05-10T22:24:17.496Z,14.10
2018-05-10T22:26:45.109Z,14.06
2018-05-10T22:29:12.810Z,14.11
2018-05-10T22:31:40.450Z,14.15
2018-05-10T22:34:08.106Z,14.18
2018-05-10T22:36:35.714Z,14.19
2018-05-10T22:39:03.521Z,14.14
2018-05-10T22:41:31.247Z,14.19
2018-05-10T22:43:58.884Z,14.15
2018-05-10T22:46:26.483Z,14.12
2018-05-10T22:48:54.173Z,14.08
2018-05-10T22:51:21.800Z,14.09
2018-05-10T22:53:49.399Z,14.04
2018-05-10T22:56:17.075Z,14.08
2018-05-10T22:58:44.695Z,14.10
2018-05-10T23:01:12.405Z,14.13
2018-05-10T23:03:40.065Z,14.15
2018-05-10T23:06:07.831Z,14.43
2018-05-10T23:08:35.426Z,14.32
2018-05-10T23:11:03.092Z,14.07
2018-05-10T23:13:30.712Z,14.04
2018-05-10T23:15:58.449Z,14.03
2018-05-10T23:18:26.055Z,14.07
2018-05-10T23:20:53.784Z,14.06
2018-05-10T23:23:21.374Z,14.02
2018-05-10T23:25:49.181Z,14.03
2018-05-10T23:28:17.587Z,14.04
2018-05-10T23:30:45.237Z,14.08
2018-05-10T23:33:12.902Z,14.05
2018-05-10T23:35:40.824Z,14.08
2018-05-10T23:38:08.496Z,14.05
2018-05-10T23:40:36.170Z,14.06
2018-05-10T23:43:04.091Z,14.11
2018-05-10T23:45:31.713Z,14.05
2018-05-10T23:47:59.328Z,14.04
2018-05-10T23:50:27.042Z,14.08
2018-05-10T23:52:54.654Z,14.06
2018-05-10T23:55:22.290Z,13.97
2018-05-10T23:57:50.425Z,14.01
